Time;durP1;ratioP1;P1;durP2;ratioP2;P2;SDS_P1;SDS_P2;PMS_P1;PMS_P2;Temp;Humidity;BMP_temperature;BMP_pressure;BME280_temperature;BME280_humidity;BME280_pressure;Samples;Min_cycle;Max_cycle;Signal;HPM_P1;HPM_P2
2022/09/27 00:00:14;;;;;;;8.82;2.58;;;;;;;9.30;100.00;99607.28;5031980;28;20464;-75
2022/09/27 00:02:40;;;;;;;5.70;2.15;;;;;;;9.32;100.00;99608.00;5017180;28;20052;-75
2022/09/27 00:05:06;;;;;;;14.07;2.42;;;;;;;9.34;100.00;99608.75;5028229;28;20063;-75
2022/09/27 00:07:31;;;;;;;5.22;2.28;;;;;;;9.33;100.00;99612.44;5025080;28;20049;-76
2022/09/27 00:09:57;;;;;;;8.65;2.03;;;;;;;9.34;100.00;99621.44;5027046;28;20037;-74
2022/09/27 00:12:22;;;;;;;5.80;1.55;;;;;;;9.32;100.00;99613.41;5022485;28;20036;-74
2022/09/27 00:14:48;;;;;;;4.93;1.50;;;;;;;9.34;100.00;99626.88;5030573;28;20083;-75
2022/09/27 00:17:13;;;;;;;3.45;1.50;;;;;;;9.34;100.00;99625.03;5027565;28;20059;-74
2022/09/27 00:19:39;;;;;;;2.20;1.08;;;;;;;9.35;99.76;99628.59;5029652;28;20041;-75
2022/09/27 00:22:04;;;;;;;5.03;1.25;;;;;;;9.35;99.84;99634.03;5027699;28;20105;-75
2022/09/27 00:24:30;;;;;;;8.00;1.38;;;;;;;9.35;99.51;99631.31;5024466;28;20380;-75
2022/09/27 00:26:56;;;;;;;3.38;0.90;;;;;;;9.35;99.38;99644.88;5025019;28;20099;-76
2022/09/27 00:29:21;;;;;;;4.57;1.10;;;;;;;9.35;99.58;99651.16;5025860;28;20710;-75
2022/09/27 00:31:47;;;;;;;6.50;0.90;;;;;;;9.34;99.38;99660.31;5010420;28;20025;-75
2022/09/27 00:34:23;;;;;;;4.93;1.40;;;;;;;9.32;99.38;99640.56;4991663;28;20085;-75
2022/09/27 00:36:50;;;;;;;3.72;0.93;;;;;;;9.32;99.66;99645.13;5021397;28;20085;-75
2022/09/27 00:39:15;;;;;;;2.13;1.10;;;;;;;9.30;98.95;99642.56;5027011;28;20054;-75
2022/09/27 00:41:41;;;;;;;4.22;1.00;;;;;;;9.30;99.02;99648.00;5043961;28;20046;-74
2022/09/27 00:44:28;;;;;;;4.53;0.88;;;;;;;9.30;98.22;99631.69;5025437;28;20488;-75
2022/09/27 00:46:59;;;;;;;3.20;0.80;;;;;;;9.30;98.35;99645.28;5036893;28;20033;-75
2022/09/27 00:49:30;;;;;;;1.33;0.60;;;;;;;9.27;97.99;99648.25;5031710;28;20030;-76
2022/09/27 00:52:05;;;;;;;2.72;0.95;;;;;;;9.29;98.61;99645.41;5028952;28;20044;-76
2022/09/27 00:54:35;;;;;;;2.85;0.85;;;;;;;9.26;98.84;99640.25;5010525;28;20038;-76
2022/09/27 00:57:02;;;;;;;4.30;0.70;;;;;;;9.26;99.10;99642.97;5025077;28;20092;-76
2022/09/27 00:59:40;;;;;;;6.43;0.90;;;;;;;9.27;99.00;99641.97;5025618;28;20499;-76
2022/09/27 01:02:06;;;;;;;3.20;0.90;;;;;;;9.27;99.10;99637.38;5043246;28;20091;-74
2022/09/27 01:04:34;;;;;;;3.13;0.80;;;;;;;9.26;99.52;99646.53;5026038;28;20096;-75
2022/09/27 01:07:00;;;;;;;5.53;1.65;;;;;;;9.23;99.25;99645.94;5026033;28;20128;-75
2022/09/27 01:09:25;;;;;;;9.43;1.23;;;;;;;9.22;99.30;99646.94;5031913;28;20112;-75
2022/09/27 01:12:12;;;;;;;2.85;0.98;;;;;;;9.22;99.15;99652.34;5032512;28;20144;-75
2022/09/27 01:14:47;;;;;;;3.65;0.85;;;;;;;9.20;98.99;99647.91;5023103;28;20029;-75
2022/09/27 01:17:22;;;;;;;5.95;1.20;;;;;;;9.17;98.96;99644.59;5022136;28;20034;-75
2022/09/27 01:20:08;;;;;;;2.45;1.20;;;;;;;9.20;98.91;99642.50;5047496;28;20038;-75
2022/09/27 01:23:11;;;;;;;2.78;0.90;;;;;;;9.18;98.58;99641.75;5027456;28;20041;-75
2022/09/27 01:25:45;;;;;;;1.70;0.93;;;;;;;9.18;99.01;99649.03;5053764;28;20488;-75
2022/09/27 01:28:44;;;;;;;4.60;1.15;;;;;;;9.16;99.14;99653.75;5029342;28;20069;-75
2022/09/27 01:31:18;;;;;;;5.28;1.42;;;;;;;9.15;98.51;99660.16;5032293;28;20120;-75
2022/09/27 01:33:55;;;;;;;2.25;1.00;;;;;;;9.11;98.57;99662.28;5029632;28;20035;-73
2022/09/27 01:36:40;;;;;;;3.53;0.82;;;;;;;9.08;98.60;99662.53;5027108;28;20040;-75
2022/09/27 01:39:36;;;;;;;3.42;0.90;;;;;;;9.06;98.47;99664.53;5020616;28;20021;-75
2022/09/27 01:42:49;;;;;;;4.75;1.30;;;;;;;9.00;98.30;99667.78;4990662;28;20085;-72
2022/09/27 01:45:24;;;;;;;1.52;0.80;;;;;;;8.94;98.58;99670.97;5025000;28;20112;-75
2022/09/27 01:48:09;;;;;;;7.10;1.30;;;;;;;8.92;98.63;99667.56;5029149;28;20042;-76
2022/09/27 01:50:54;;;;;;;3.25;0.80;;;;;;;8.89;98.35;99674.09;5039468;28;20096;-75
2022/09/27 01:53:25;;;;;;;3.43;0.83;;;;;;;8.87;98.77;99678.78;5010867;28;20030;-75
2022/09/27 01:56:15;;;;;;;3.08;0.90;;;;;;;8.85;98.47;99683.47;5021965;28;20079;-74
2022/09/27 01:59:12;;;;;;;3.92;2.65;;;;;;;8.83;98.75;99677.31;5027962;28;20132;-75
2022/09/27 02:01:47;;;;;;;1.30;0.80;;;;;;;8.81;98.93;99673.00;5023935;28;20119;-75
2022/09/27 02:04:16;;;;;;;4.82;0.82;;;;;;;8.80;98.52;99671.28;5010649;28;20501;-74
2022/09/27 02:07:10;;;;;;;3.88;0.93;;;;;;;8.79;98.64;99666.84;5012576;28;20400;-74
2022/09/27 02:09:54;;;;;;;4.43;0.90;;;;;;;8.77;98.73;99672.41;5023586;28;20170;-75
2022/09/27 02:12:30;;;;;;;3.13;0.70;;;;;;;8.76;98.78;99683.38;5044646;28;20032;-75
2022/09/27 02:15:08;;;;;;;4.90;0.80;;;;;;;8.72;98.53;99673.78;5012175;28;20029;-75
2022/09/27 02:17:57;;;;;;;5.03;0.80;;;;;;;8.66;98.24;99675.16;5027265;28;20604;-76
2022/09/27 02:20:34;;;;;;;2.63;0.77;;;;;;;8.62;97.55;99668.25;5042653;28;20037;-75
2022/09/27 02:23:39;;;;;;;5.30;1.08;;;;;;;8.58;97.88;99664.97;5017619;28;20072;-75
2022/09/27 02:26:18;;;;;;;5.88;0.80;;;;;;;8.57;98.08;99674.06;5046730;28;20491;-75
2022/09/27 02:29:00;;;;;;;2.80;0.88;;;;;;;8.56;97.48;99669.63;5028796;28;20052;-75
2022/09/27 02:31:32;;;;;;;5.25;0.60;;;;;;;8.54;97.64;99670.78;5042806;28;20500;-75
2022/09/27 02:34:21;;;;;;;3.90;0.55;;;;;;;8.54;97.97;99676.19;4994737;28;20033;-75
2022/09/27 02:36:47;;;;;;;10.38;1.52;;;;;;;8.51;97.47;99684.56;5026513;28;20521;-74
2022/09/27 02:39:13;;;;;;;2.58;0.65;;;;;;;8.47;97.62;99686.66;4994731;28;20041;-74
2022/09/27 02:41:38;;;;;;;3.35;0.80;;;;;;;8.42;97.55;99686.19;5026806;28;20393;-76
2022/09/27 02:44:12;;;;;;;1.65;0.63;;;;;;;8.42;97.22;99694.31;5028530;28;20034;-74
2022/09/27 02:46:46;;;;;;;3.08;0.70;;;;;;;8.36;97.33;99694.78;5043056;28;20045;-75
2022/09/27 02:49:32;;;;;;;6.28;0.90;;;;;;;8.30;97.42;99677.19;5037871;28;20511;-75
2022/09/27 02:52:50;;;;;;;3.05;1.02;;;;;;;8.26;97.86;99678.41;5029067;28;20465;-75
2022/09/27 02:55:40;;;;;;;7.22;0.82;;;;;;;8.19;97.59;99680.75;5021286;28;20029;-75
2022/09/27 02:58:57;;;;;;;7.35;1.30;;;;;;;8.19;98.02;99674.47;5029555;28;20452;-75
2022/09/27 03:01:50;;;;;;;4.30;0.98;;;;;;;8.16;97.51;99675.59;5010832;28;20077;-75
2022/09/27 03:04:37;;;;;;;4.35;0.77;;;;;;;8.12;97.97;99678.69;5043953;28;20580;-75
2022/09/27 03:07:03;;;;;;;4.60;1.00;;;;;;;8.07;97.66;99662.81;5029240;28;20381;-76
2022/09/27 03:09:40;;;;;;;4.15;0.90;;;;;;;8.05;97.85;99670.19;5005214;28;20032;-75
2022/09/27 03:12:05;;;;;;;2.92;0.75;;;;;;;7.99;97.54;99669.81;5026645;28;20029;-75
2022/09/27 03:14:31;;;;;;;3.80;0.93;;;;;;;7.98;97.72;99674.38;5025133;28;20572;-74
2022/09/27 03:17:04;;;;;;;7.00;0.93;;;;;;;7.96;98.26;99675.47;5015069;28;20030;-76
2022/09/27 03:20:05;;;;;;;5.38;0.75;;;;;;;7.92;98.51;99675.72;4988682;28;20112;-75
2022/09/27 03:22:55;;;;;;;3.92;1.00;;;;;;;7.91;98.52;99681.25;5024596;28;20441;-75
2022/09/27 03:25:20;;;;;;;1.85;0.80;;;;;;;7.89;98.41;99678.69;5031803;28;20063;-75
2022/09/27 03:27:46;;;;;;;10.10;1.20;;;;;;;7.86;98.84;99687.03;5012070;28;20032;-75
2022/09/27 03:30:13;;;;;;;5.38;1.02;;;;;;;7.88;99.36;99685.09;5036280;28;20029;-74
2022/09/27 03:32:43;;;;;;;2.67;1.20;;;;;;;7.91;99.70;99689.38;5025530;28;20037;-75
2022/09/27 03:35:27;;;;;;;6.60;1.10;;;;;;;7.95;99.29;99684.59;5030324;28;20103;-76
2022/09/27 03:37:53;;;;;;;3.05;0.90;;;;;;;7.97;99.48;99691.59;5024980;28;20447;-75
2022/09/27 03:40:18;;;;;;;8.82;1.33;;;;;;;7.98;99.52;99696.03;5018721;28;20037;-75
2022/09/27 03:42:43;;;;;;;4.45;1.00;;;;;;;8.01;99.39;99701.19;5010557;28;20540;-75
2022/09/27 03:45:10;;;;;;;3.30;1.20;;;;;;;8.02;99.97;99708.38;5040921;28;20029;-75
2022/09/27 03:47:40;;;;;;;5.25;1.58;;;;;;;8.04;99.93;99705.53;5008418;28;20120;-75
2022/09/27 03:50:07;;;;;;;8.48;1.65;;;;;;;8.03;99.40;99709.22;5008784;28;20049;-75
2022/09/27 03:52:32;;;;;;;5.32;1.42;;;;;;;8.04;99.69;99725.34;5009502;28;20041;-76
2022/09/27 03:54:57;;;;;;;5.93;1.08;;;;;;;8.08;99.58;99737.66;5018450;28;20044;-75
2022/09/27 03:57:23;;;;;;;9.38;1.85;;;;;;;8.10;99.87;99741.09;5028685;28;20472;-74
2022/09/27 03:59:48;;;;;;;6.93;1.20;;;;;;;8.15;100.00;99743.44;5014825;28;20056;-75
2022/09/27 04:02:32;;;;;;;4.18;0.98;;;;;;;8.18;99.98;99744.06;5011086;28;20139;-76
2022/09/27 04:05:29;;;;;;;8.27;1.10;;;;;;;8.23;99.78;99748.25;5028641;28;20076;-75
2022/09/27 04:08:04;;;;;;;5.53;0.93;;;;;;;8.25;99.99;99752.53;5024524;28;20080;-76
2022/09/27 04:10:31;;;;;;;2.42;0.85;;;;;;;8.25;100.00;99749.81;5039730;28;20117;-76
2022/09/27 04:12:56;;;;;;;5.28;0.95;;;;;;;8.27;99.47;99741.59;5048860;28;20025;-76
2022/09/27 04:15:24;;;;;;;8.00;1.90;;;;;;;8.23;99.75;99738.25;5011072;28;20048;-77
2022/09/27 04:17:50;;;;;;;5.03;0.90;;;;;;;8.24;99.35;99733.72;5029106;28;20465;-76
2022/09/27 04:20:32;;;;;;;1.98;0.70;;;;;;;8.24;98.93;99726.44;5031182;28;20049;-76
2022/09/27 04:22:59;;;;;;;2.90;0.75;;;;;;;8.24;99.17;99709.31;5030510;28;20033;-76
2022/09/27 04:25:25;;;;;;;5.40;0.98;;;;;;;8.24;98.87;99707.47;5028301;28;20033;-77
2022/09/27 04:27:54;;;;;;;3.40;0.73;;;;;;;8.22;98.70;99700.47;5034007;28;20030;-76
2022/09/27 04:30:25;;;;;;;3.47;0.80;;;;;;;8.23;98.72;99704.91;5033122;28;20021;-76
2022/09/27 04:33:09;;;;;;;4.47;1.08;;;;;;;8.23;98.68;99704.91;5033947;28;20040;-75
2022/09/27 04:38:59;;;;;;;3.13;0.60;;;;;;;8.18;98.59;99713.41;5048321;28;20053;-76
2022/09/27 04:41:27;;;;;;;4.22;0.75;;;;;;;8.15;98.03;99697.38;5034214;28;20429;-76
2022/09/27 04:43:54;;;;;;;2.38;0.98;;;;;;;8.12;98.21;99698.50;5042471;28;20266;-74
2022/09/27 04:46:20;;;;;;;4.88;0.68;;;;;;;8.09;98.08;99698.75;5046007;28;20140;-76
2022/09/27 04:48:46;;;;;;;6.07;0.90;;;;;;;8.04;98.07;99700.97;5049674;28;20029;-75
2022/09/27 04:51:12;;;;;;;4.07;0.75;;;;;;;8.02;98.16;99707.47;5030027;28;20120;-77
2022/09/27 04:53:37;;;;;;;5.55;1.00;;;;;;;8.03;98.52;99714.63;5031510;28;20595;-76
2022/09/27 04:56:05;;;;;;;2.80;0.70;;;;;;;8.03;98.85;99723.63;5026757;28;20136;-76
2022/09/27 04:58:33;;;;;;;4.95;0.70;;;;;;;8.01;98.56;99731.00;5031623;28;20049;-76
2022/09/27 05:01:03;;;;;;;2.33;0.60;;;;;;;8.05;98.24;99729.75;5029687;28;20033;-76
2022/09/27 05:03:40;;;;;;;4.47;1.05;;;;;;;8.02;98.98;99723.72;5033452;28;20515;-74
2022/09/27 05:06:11;;;;;;;1.30;0.60;;;;;;;8.01;98.22;99730.13;5031808;28;20030;-73
2022/09/27 05:08:36;;;;;;;1.63;0.60;;;;;;;7.95;98.71;99733.34;5042409;28;20511;-75
2022/09/27 05:11:17;;;;;;;2.83;0.80;;;;;;;7.97;98.79;99748.47;5028208;28;20480;-76
2022/09/27 05:14:03;;;;;;;4.95;0.88;;;;;;;7.98;98.51;99758.34;5029466;28;20041;-76
2022/09/27 05:16:33;;;;;;;1.95;0.70;;;;;;;7.98;98.50;99758.34;5025064;28;20500;-75
2022/09/27 05:19:27;;;;;;;1.75;0.70;;;;;;;7.99;98.70;99759.19;5029194;28;20139;-76
2022/09/27 05:22:06;;;;;;;2.70;0.80;;;;;;;7.98;98.71;99752.91;5033156;28;20045;-76
2022/09/27 05:24:32;;;;;;;0.98;0.60;;;;;;;7.99;98.50;99754.63;5034553;28;20361;-76
2022/09/27 05:26:59;;;;;;;1.65;0.60;;;;;;;8.00;98.34;99753.66;5033266;28;20025;-76
2022/09/27 05:29:24;;;;;;;3.85;1.55;;;;;;;8.01;98.31;99751.81;5033987;28;20040;-76
2022/09/27 05:32:03;;;;;;;3.88;0.82;;;;;;;8.02;98.99;99750.81;5029685;28;20037;-76
2022/09/27 05:34:31;;;;;;;3.72;0.73;;;;;;;8.01;98.91;99747.25;5039561;28;20040;-77
2022/09/27 05:36:57;;;;;;;3.50;0.80;;;;;;;8.00;98.89;99750.94;5025290;28;20029;-76
2022/09/27 05:39:22;;;;;;;3.38;0.50;;;;;;;8.03;98.42;99757.97;5027310;28;20037;-76
2022/09/27 05:41:49;;;;;;;1.45;0.80;;;;;;;8.04;98.83;99744.28;5046848;28;20052;-77
2022/09/27 05:44:16;;;;;;;1.85;0.68;;;;;;;8.05;98.90;99743.31;5029892;28;20029;-77
2022/09/27 05:46:49;;;;;;;0.55;0.55;;;;;;;8.05;99.04;99740.59;5029715;28;20021;-76
2022/09/27 05:49:14;;;;;;;2.65;0.75;;;;;;;8.07;98.47;99743.22;5027680;28;20119;-75
2022/09/27 05:51:40;;;;;;;0.90;0.70;;;;;;;8.09;98.33;99752.06;5046456;28;20057;-76
2022/09/27 05:54:05;;;;;;;1.10;0.82;;;;;;;8.08;98.79;99750.34;5043593;28;20434;-76
2022/09/27 05:56:31;;;;;;;3.28;1.25;;;;;;;8.06;98.88;99738.75;5011802;28;20030;-76
2022/09/27 05:59:21;;;;;;;1.48;0.77;;;;;;;8.04;98.81;99736.19;5040937;28;20124;-76
2022/09/27 06:02:10;;;;;;;2.33;0.52;;;;;;;8.06;98.60;99738.75;5015102;28;20047;-76
2022/09/27 06:04:59;;;;;;;2.28;0.93;;;;;;;8.04;99.02;99746.16;5018532;28;20527;-75
2022/09/27 06:07:45;;;;;;;1.92;0.85;;;;;;;8.03;99.07;99742.59;5028340;28;20038;-76
2022/09/27 06:10:18;;;;;;;2.50;0.80;;;;;;;8.03;98.92;99747.13;5046479;28;20034;-76
2022/09/27 06:12:44;;;;;;;4.55;0.80;;;;;;;8.04;99.06;99738.88;5064979;28;20400;-77
2022/09/27 06:15:24;;;;;;;2.45;0.80;;;;;;;7.99;98.99;99734.81;5042651;28;20052;-76
2022/09/27 06:17:50;;;;;;;1.23;0.60;;;;;;;8.00;98.88;99731.97;5014282;28;20034;-76
2022/09/27 06:20:17;;;;;;;1.65;0.88;;;;;;;8.02;98.70;99739.97;5045240;28;20022;-76
2022/09/27 06:22:45;;;;;;;0.70;0.70;;;;;;;8.02;98.50;99748.09;5021234;28;20140;-76
2022/09/27 06:25:11;;;;;;;1.98;0.77;;;;;;;8.01;98.43;99752.66;5036491;28;20080;-74
2022/09/27 06:27:48;;;;;;;4.60;0.93;;;;;;;7.99;98.28;99749.22;5029313;28;20069;-77
2022/09/27 06:30:21;;;;;;;1.50;0.60;;;;;;;8.00;98.73;99747.38;5033772;28;20083;-76
2022/09/27 06:32:58;;;;;;;5.35;0.98;;;;;;;8.01;98.44;99751.81;5035931;28;20441;-76
2022/09/27 06:35:34;;;;;;;0.65;0.57;;;;;;;8.03;98.65;99753.41;5043192;28;20112;-75
2022/09/27 06:38:03;;;;;;;0.90;0.70;;;;;;;8.04;98.49;99763.25;5024975;28;20054;-75
2022/09/27 06:40:29;;;;;;;2.00;0.88;;;;;;;8.04;98.79;99755.13;5027899;28;20567;-77
2022/09/27 06:43:09;;;;;;;1.17;1.10;;;;;;;8.02;98.78;99748.09;5025934;28;20867;-76
2022/09/27 06:45:53;;;;;;;5.60;1.33;;;;;;;8.02;98.98;99742.69;5023878;28;20542;-77
2022/09/27 06:48:28;;;;;;;3.55;1.10;;;;;;;8.01;98.39;99744.53;5041734;28;20029;-76
2022/09/27 06:51:03;;;;;;;4.03;1.55;;;;;;;8.00;99.03;99740.09;5051398;28;20060;-76
2022/09/27 06:53:29;;;;;;;3.88;1.48;;;;;;;7.97;98.98;99748.47;5003944;28;20076;-75
2022/09/27 06:56:00;;;;;;;2.80;2.03;;;;;;;7.97;99.15;99744.91;5038770;28;20144;-77
2022/09/27 07:01:32;;;;;;;2.30;1.33;;;;;;;8.03;99.06;99753.41;5020896;28;20052;-75
2022/09/27 07:04:18;;;;;;;4.57;1.80;;;;;;;8.05;98.88;99754.16;5014048;28;20140;-76
2022/09/27 07:07:05;;;;;;;2.40;1.67;;;;;;;8.08;99.53;99751.19;5017493;28;20054;-76
2022/09/27 07:09:33;;;;;;;2.85;1.70;;;;;;;8.10;99.40;99743.78;5035506;28;20087;-77
2022/09/27 07:11:59;;;;;;;5.00;2.55;;;;;;;8.17;99.67;99746.91;5043685;28;20089;-76
2022/09/27 07:14:26;;;;;;;2.40;1.92;;;;;;;8.24;99.77;99758.09;5014704;28;20034;-76
2022/09/27 07:16:52;;;;;;;4.00;2.70;;;;;;;8.28;99.67;99755.00;5015256;28;20068;-76
2022/09/27 07:19:18;;;;;;;4.70;2.33;;;;;;;8.34;99.38;99761.78;5024629;28;20057;-76
2022/09/27 07:21:44;;;;;;;3.08;1.80;;;;;;;8.38;99.29;99763.28;5001275;28;20036;-75
2022/09/27 07:24:09;;;;;;;4.65;2.40;;;;;;;8.42;99.40;99773.75;5027817;28;20045;-76
2022/09/27 07:26:35;;;;;;;2.65;1.80;;;;;;;8.43;99.24;99769.19;5017003;28;20033;-76
2022/09/27 07:29:03;;;;;;;3.85;2.13;;;;;;;8.48;99.29;99775.09;5022279;28;20060;-75
2022/09/27 07:31:29;;;;;;;6.07;2.53;;;;;;;8.52;99.49;99776.59;5041542;28;20092;-75
2022/09/27 07:33:54;;;;;;;3.63;2.47;;;;;;;8.57;99.01;99768.09;5033771;28;20079;-75
2022/09/27 07:36:20;;;;;;;6.63;2.38;;;;;;;8.63;99.35;99770.31;5023637;28;20362;-76
2022/09/27 07:38:45;;;;;;;3.85;2.30;;;;;;;8.67;99.41;99779.91;5022747;28;20029;-75
2022/09/27 07:41:13;;;;;;;4.03;2.25;;;;;;;8.69;98.84;99784.22;5017442;28;20026;-75
2022/09/27 07:43:40;;;;;;;5.38;2.88;;;;;;;8.71;98.95;99780.50;5014112;28;20060;-75
2022/09/27 07:46:06;;;;;;;5.15;3.88;;;;;;;8.73;99.05;99771.28;5017570;28;20037;-75
2022/09/27 07:48:50;;;;;;;3.60;2.63;;;;;;;8.78;99.08;99781.75;5022824;28;20338;-75
2022/09/27 07:51:33;;;;;;;5.18;3.25;;;;;;;8.84;99.11;99779.38;5023020;28;20037;-75
2022/09/27 07:54:19;;;;;;;6.68;3.03;;;;;;;8.89;98.95;99779.84;4993599;28;20045;-76
2022/09/27 07:57:04;;;;;;;5.03;2.60;;;;;;;8.92;98.38;99787.75;5022965;28;20484;-76
2022/09/27 07:59:32;;;;;;;4.95;3.15;;;;;;;8.94;98.26;99795.75;5036114;28;20061;-74
2022/09/27 08:01:58;;;;;;;14.20;4.35;;;;;;;8.86;98.23;99790.09;5013596;28;20057;-76
2022/09/27 08:04:23;;;;;;;3.72;3.22;;;;;;;8.91;97.77;99799.59;5032490;28;20076;-76
2022/09/27 08:06:49;;;;;;;4.82;3.20;;;;;;;8.91;98.07;99796.88;5024376;28;20067;-75
2022/09/27 08:09:15;;;;;;;6.05;3.60;;;;;;;8.92;98.04;99795.91;5032567;28;20119;-75
2022/09/27 08:11:41;;;;;;;6.57;3.22;;;;;;;8.99;98.31;99800.81;5034291;28;20121;-74
2022/09/27 08:14:09;;;;;;;6.63;3.70;;;;;;;9.02;98.10;99795.13;5023325;28;20126;-76
2022/09/27 08:16:36;;;;;;;7.82;3.75;;;;;;;9.09;98.66;99793.63;5021534;28;20366;-74
2022/09/27 08:19:20;;;;;;;5.43;3.83;;;;;;;9.10;97.45;99793.50;5012072;28;20567;-75
2022/09/27 08:22:20;;;;;;;6.82;3.95;;;;;;;9.13;97.78;99793.22;5002700;28;20167;-76
2022/09/27 08:25:03;;;;;;;6.03;3.53;;;;;;;9.15;98.12;99795.84;5009036;28;20037;-74
2022/09/27 08:27:37;;;;;;;8.18;4.38;;;;;;;9.19;98.20;99797.31;5011363;28;20045;-74
2022/09/27 08:30:16;;;;;;;6.07;4.05;;;;;;;9.18;97.82;99793.72;5017717;28;20417;-75
2022/09/27 08:32:43;;;;;;;9.40;5.13;;;;;;;9.17;97.40;99794.69;5019391;28;20029;-75
2022/09/27 08:35:08;;;;;;;6.25;4.57;;;;;;;9.19;97.69;99794.59;5020175;28;20052;-76
2022/09/27 08:37:34;;;;;;;8.55;5.60;;;;;;;9.22;98.01;99790.75;5017937;28;20033;-76
2022/09/27 08:40:00;;;;;;;8.23;5.45;;;;;;;9.25;97.28;99793.22;5022205;28;20041;-76
2022/09/27 08:42:40;;;;;;;13.30;6.90;;;;;;;9.28;96.94;99793.81;5004583;28;20112;-76
2022/09/27 08:45:21;;;;;;;9.32;6.47;;;;;;;9.33;97.11;99796.16;5014402;28;20042;-76
2022/09/27 08:47:59;;;;;;;9.73;6.57;;;;;;;9.35;97.37;99794.16;5025927;28;20400;-76
2022/09/27 08:50:29;;;;;;;11.52;7.25;;;;;;;9.41;98.04;99801.78;5035975;28;20038;-76
2022/09/27 08:53:16;;;;;;;12.63;7.03;;;;;;;9.48;97.32;99799.44;5005952;28;20029;-76
2022/09/27 08:55:46;;;;;;;11.63;7.93;;;;;;;9.49;97.49;99803.84;5030506;28;20117;-75
2022/09/27 08:58:30;;;;;;;9.98;6.47;;;;;;;9.48;97.00;99811.13;5021699;28;20053;-76
2022/09/27 09:01:03;;;;;;;11.93;7.20;;;;;;;9.51;96.34;99805.44;5032600;28;20540;-76
2022/09/27 09:03:35;;;;;;;12.35;7.68;;;;;;;9.54;96.78;99824.19;5042204;28;20100;-76
2022/09/27 09:06:21;;;;;;;12.95;7.80;;;;;;;9.53;96.81;99821.63;5020735;28;20041;-76
2022/09/27 09:08:55;;;;;;;17.88;7.93;;;;;;;9.55;96.99;99830.47;5021401;28;20087;-76
2022/09/27 09:14:57;;;;;;;13.07;7.72;;;;;;;9.56;96.94;99833.09;4984496;28;20554;-76
2022/09/27 09:17:39;;;;;;;11.80;8.10;;;;;;;9.62;96.09;99831.69;5040790;28;20041;-75
2022/09/27 09:21:07;;;;;;;10.45;7.10;;;;;;;9.66;96.99;99836.75;5031034;28;20029;-76
2022/09/27 09:23:57;;;;;;;14.48;8.52;;;;;;;9.65;96.25;99843.16;5022757;28;20046;-76
2022/09/27 09:26:28;;;;;;;10.55;7.45;;;;;;;9.65;96.44;99843.16;5046574;28;20041;-75
2022/09/27 09:29:15;;;;;;;12.15;8.25;;;;;;;9.66;96.70;99836.75;5033239;28;20056;-76
2022/09/27 09:31:55;;;;;;;13.57;7.85;;;;;;;9.61;96.06;99838.13;5042916;28;20033;-76
2022/09/27 09:34:33;;;;;;;11.18;7.63;;;;;;;9.59;96.25;99830.09;5047494;28;20033;-76
2022/09/27 09:37:37;;;;;;;12.38;7.65;;;;;;;9.58;95.94;99828.38;5046335;28;20040;-75
2022/09/27 09:40:27;;;;;;;12.63;8.25;;;;;;;9.55;96.50;99823.19;5025014;28;20068;-76
2022/09/27 09:43:12;;;;;;;11.18;7.93;;;;;;;9.53;97.02;99830.63;5042233;28;20048;-76
2022/09/27 09:45:45;;;;;;;14.45;7.90;;;;;;;9.50;97.01;99825.44;5022628;28;20040;-77
2022/09/27 09:48:38;;;;;;;11.85;8.50;;;;;;;9.47;97.10;99814.84;5030526;28;20048;-74
2022/09/27 09:51:06;;;;;;;12.77;8.77;;;;;;;9.43;97.67;99824.25;5031937;28;20163;-76
2022/09/27 09:53:32;;;;;;;11.13;8.07;;;;;;;9.45;97.05;99825.81;5010336;28;20030;-76
2022/09/27 09:56:21;;;;;;;15.90;8.90;;;;;;;9.48;97.54;99829.28;5044497;28;20491;-76
2022/09/27 09:58:56;;;;;;;11.88;7.82;;;;;;;9.52;97.39;99837.03;5037626;28;20489;-75
2022/09/27 10:01:37;;;;;;;11.27;7.22;;;;;;;9.55;96.89;99833.19;5023642;28;20466;-75
2022/09/27 10:04:02;;;;;;;10.27;5.32;;;;;;;9.54;96.48;99824.19;5022278;28;20148;-76
2022/09/27 10:06:30;;;;;;;11.75;4.90;;;;;;;9.56;95.82;99832.19;5028766;28;20033;-76
2022/09/27 10:08:58;;;;;;;7.03;4.30;;;;;;;9.55;95.90;99835.91;5011984;28;20025;-76
2022/09/27 10:11:42;;;;;;;6.72;4.43;;;;;;;9.54;96.12;99835.03;5046372;28;20120;-76
2022/09/27 10:14:14;;;;;;;8.13;3.42;;;;;;;9.56;95.85;99837.63;5038246;28;20072;-74
2022/09/27 10:16:46;;;;;;;6.53;3.08;;;;;;;9.54;95.39;99839.63;5029846;28;20056;-74
2022/09/27 10:19:16;;;;;;;6.10;2.60;;;;;;;9.52;95.54;99844.34;5039802;28;20488;-75
2022/09/27 10:21:44;;;;;;;3.05;2.75;;;;;;;9.56;95.76;99841.22;5036832;28;20037;-75
2022/09/27 10:24:13;;;;;;;3.28;1.95;;;;;;;9.54;95.38;99842.34;5019938;28;20068;-74
2022/09/27 10:27:08;;;;;;;4.28;1.63;;;;;;;9.51;94.91;99851.59;5018132;28;20396;-76
2022/09/27 10:29:37;;;;;;;3.05;1.75;;;;;;;9.54;95.67;99845.91;5028701;28;20095;-75
2022/09/27 10:32:21;;;;;;;6.15;1.92;;;;;;;9.62;95.55;99850.72;5005904;28;20022;-75
2022/09/27 10:34:47;;;;;;;3.13;1.58;;;;;;;9.69;95.66;99843.75;5034001;28;20025;-76
2022/09/27 10:37:16;;;;;;;4.68;1.30;;;;;;;9.76;94.61;99844.97;5026377;28;20052;-75
2022/09/27 10:39:52;;;;;;;1.83;1.30;;;;;;;9.85;94.15;99851.47;5023194;28;20025;-75
2022/09/27 10:42:31;;;;;;;3.15;0.90;;;;;;;9.83;92.36;99843.44;5022693;28;20041;-75
2022/09/27 10:44:57;;;;;;;2.05;0.80;;;;;;;9.87;93.03;99844.03;5021379;28;20057;-74
2022/09/27 10:47:31;;;;;;;1.58;0.85;;;;;;;9.94;93.47;99845.25;5008802;28;20099;-75
2022/09/27 10:50:06;;;;;;;2.75;0.70;;;;;;;10.02;93.18;99847.28;5043138;28;20488;-75
2022/09/27 10:53:04;;;;;;;1.60;0.65;;;;;;;10.09;92.71;99848.50;5011371;28;20052;-75
2022/09/27 10:55:34;;;;;;;2.60;1.05;;;;;;;10.09;92.02;99849.34;5042064;28;20448;-76
2022/09/27 10:58:01;;;;;;;2.15;0.88;;;;;;;10.05;91.85;99852.47;5024271;28;20044;-75
2022/09/27 11:00:35;;;;;;;1.13;0.90;;;;;;;10.01;91.66;99845.56;5021806;28;20508;-75
2022/09/27 11:03:15;;;;;;;2.42;0.70;;;;;;;10.05;92.71;99845.16;5034289;28;20144;-75
2022/09/27 11:05:42;;;;;;;0.68;0.60;;;;;;;10.10;91.02;99847.50;5042258;28;20033;-75
2022/09/27 11:08:28;;;;;;;0.90;0.82;;;;;;;10.16;92.26;99853.25;5027277;28;20164;-75
2022/09/27 11:11:20;;;;;;;2.17;0.70;;;;;;;10.11;90.55;99852.78;5035005;28;20507;-75
2022/09/27 11:14:03;;;;;;;0.80;0.40;;;;;;;10.15;91.56;99850.66;5011541;28;20038;-75
2022/09/27 11:16:45;;;;;;;0.68;0.50;;;;;;;10.19;91.24;99839.41;5025862;28;20025;-75
2022/09/27 11:19:31;;;;;;;0.90;0.50;;;;;;;10.29;90.05;99841.34;5023588;28;20057;-74
2022/09/27 11:22:07;;;;;;;1.80;0.60;;;;;;;10.33;90.83;99837.38;5033989;28;20059;-75
2022/09/27 11:24:42;;;;;;;1.75;0.60;;;;;;;10.46;90.34;99829.88;5039271;28;20042;-76
2022/09/27 11:27:14;;;;;;;2.50;0.55;;;;;;;10.47;89.00;99827.00;5027549;28;20091;-76
2022/09/27 11:29:55;;;;;;;2.17;0.67;;;;;;;10.56;89.20;99827.19;5022585;28;20489;-75
2022/09/27 11:32:56;;;;;;;1.90;0.50;;;;;;;10.66;89.84;99820.78;5027858;28;20056;-76
2022/09/27 11:35:32;;;;;;;0.73;0.45;;;;;;;10.78;87.37;99827.00;5034570;28;20045;-76
2022/09/27 11:38:27;;;;;;;1.50;0.60;;;;;;;10.91;89.38;99824.00;5021854;28;20029;-76
2022/09/27 11:41:10;;;;;;;0.93;0.32;;;;;;;11.04;89.46;99813.75;5033306;28;20029;-75
2022/09/27 11:43:50;;;;;;;;;;;;;;;11.19;90.09;99811.47;5025806;28;20503;-75
2022/09/27 11:46:32;;;;;;;0.57;0.45;;;;;;;11.36;89.36;99809.94;5023998;28;20516;-76
2022/09/27 11:49:34;;;;;;;8.73;0.95;;;;;;;11.48;89.63;99815.13;5024765;28;20041;-76
2022/09/27 11:52:29;;;;;;;4.43;0.85;;;;;;;11.63;85.91;99818.28;5038871;28;20029;-76
2022/09/27 11:55:08;;;;;;;1.52;0.60;;;;;;;11.68;85.45;99817.84;5038881;28;20094;-75
2022/09/27 11:58:11;;;;;;;2.20;0.60;;;;;;;11.68;85.10;99818.69;5037001;28;20036;-74
2022/09/27 12:01:05;;;;;;;2.00;0.90;;;;;;;11.79;85.25;99822.28;5002950;28;20408;-75
2022/09/27 12:03:55;;;;;;;2.58;0.60;;;;;;;11.57;83.52;99818.84;5025851;28;20037;-74
2022/09/27 12:06:55;;;;;;;2.13;0.75;;;;;;;11.68;84.49;99812.38;5031391;28;20034;-75
2022/09/27 12:09:44;;;;;;;1.27;0.50;;;;;;;11.92;85.56;99809.25;5007859;28;20045;-76
2022/09/27 12:12:15;;;;;;;0.90;0.60;;;;;;;12.09;84.15;99813.09;5020613;28;20026;-75
2022/09/27 12:14:52;;;;;;;1.35;0.70;;;;;;;12.23;83.95;99818.09;5022323;28;20029;-75
2022/09/27 12:17:22;;;;;;;1.83;0.60;;;;;;;12.30;81.61;99816.50;5022229;28;20041;-75
2022/09/27 12:19:53;;;;;;;0.82;0.60;;;;;;;12.41;82.99;99813.59;5026410;28;20041;-76
2022/09/27 12:22:36;;;;;;;0.50;0.40;;;;;;;12.35;77.92;99816.91;5017545;28;20033;-75
2022/09/27 12:25:03;;;;;;;1.92;0.60;;;;;;;12.19;78.24;99813.94;5025341;28;20040;-75
2022/09/27 12:27:42;;;;;;;1.92;0.50;;;;;;;12.17;80.09;99810.47;5042339;28;20037;-76